UAL256 KIAD-KBOS
Flight info
| Callsign | UAL256 |
|---|---|
| Flight time | N/A |
| Altitude | 37000 |
| Route | JCOBY4 SWANN BROSS Q419 JFK ROBUC3 |
| Aircraft | B738/M-SDE2E3FGHIRWXY/LB1 |
Departure
| Time | 2026-05-04 23:47 |
|---|---|
| Airport | Washington Dulles International Airport (KIAD) |
Arrival
| Time | N/A |
|---|---|
| Airport | Boston Logan International Airport (KBOS) |
| Time | Latitude | Longitude | Altitude | Speed | Heading |
|---|---|---|---|---|---|
| 2026-05-04 23:24 | 38.94902 | -77.44086 | 290 ft | 0 kts | 249° |
| 2026-05-04 23:32 | 38.94904 | -77.44079 | 295 ft | 4 kts | 245° |
| 2026-05-04 23:33 | 38.94919 | -77.44052 | 294 ft | 4 kts | 208° |
| 2026-05-04 23:33 | 38.94944 | -77.44045 | 291 ft | 4 kts | 176° |
| 2026-05-04 23:33 | 38.94969 | -77.44045 | 293 ft | 4 kts | 213° |
| 2026-05-04 23:33 | 38.94974 | -77.44043 | 291 ft | 0 kts | 269° |
| 2026-05-04 23:36 | 38.94989 | -77.44092 | 292 ft | 12 kts | 290° |
| 2026-05-04 23:36 | 38.94996 | -77.44221 | 295 ft | 17 kts | 270° |
| 2026-05-04 23:36 | 38.94997 | -77.44377 | 295 ft | 9 kts | 270° |
| 2026-05-04 23:37 | 38.95015 | -77.44479 | 299 ft | 14 kts | 278° |
| 2026-05-04 23:37 | 38.95018 | -77.44637 | 297 ft | 21 kts | 270° |
| 2026-05-04 23:37 | 38.95019 | -77.44856 | 298 ft | 28 kts | 271° |
| 2026-05-04 23:37 | 38.95022 | -77.45067 | 298 ft | 23 kts | 271° |
| 2026-05-04 23:38 | 38.95023 | -77.45241 | 298 ft | 22 kts | 270° |
| 2026-05-04 23:38 | 38.95024 | -77.45390 | 295 ft | 4 kts | 269° |
| 2026-05-04 23:38 | 38.95025 | -77.45469 | 294 ft | 14 kts | 274° |
| 2026-05-04 23:38 | 38.95025 | -77.45496 | 294 ft | 0 kts | 270° |
| 2026-05-04 23:40 | 38.95026 | -77.45527 | 293 ft | 9 kts | 271° |
| 2026-05-04 23:40 | 38.95018 | -77.45588 | 292 ft | 8 kts | 234° |
| 2026-05-04 23:41 | 38.94937 | -77.45599 | 294 ft | 18 kts | 179° |
| 2026-05-04 23:41 | 38.94777 | -77.45602 | 296 ft | 28 kts | 181° |
| 2026-05-04 23:41 | 38.94555 | -77.45606 | 298 ft | 36 kts | 181° |
| 2026-05-04 23:41 | 38.94297 | -77.45609 | 305 ft | 37 kts | 180° |
| 2026-05-04 23:42 | 38.94043 | -77.45612 | 304 ft | 36 kts | 180° |
| 2026-05-04 23:42 | 38.93797 | -77.45617 | 297 ft | 26 kts | 180° |
| 2026-05-04 23:42 | 38.93681 | -77.45576 | 295 ft | 18 kts | 130° |
| 2026-05-04 23:42 | 38.93584 | -77.45498 | 287 ft | 8 kts | 178° |
| 2026-05-04 23:43 | 38.93512 | -77.45530 | 283 ft | 15 kts | 200° |
| 2026-05-04 23:43 | 38.93463 | -77.45553 | 281 ft | 0 kts | 201° |
| 2026-05-04 23:44 | 38.93460 | -77.45554 | 280 ft | 1 kts | 201° |
| 2026-05-04 23:45 | 38.93434 | -77.45568 | 282 ft | 8 kts | 202° |
| 2026-05-04 23:45 | 38.93381 | -77.45633 | 282 ft | 13 kts | 251° |
| 2026-05-04 23:45 | 38.93386 | -77.45666 | 281 ft | 1 kts | 285° |
| 2026-05-04 23:45 | 38.93392 | -77.45702 | 284 ft | 7 kts | 288° |
| 2026-05-04 23:46 | 38.93431 | -77.45832 | 282 ft | 42 kts | 289° |
| 2026-05-04 23:46 | 38.93616 | -77.46463 | 294 ft | 107 kts | 290° |
| 2026-05-04 23:46 | 38.93948 | -77.47591 | 299 ft | 161 kts | 290° |
| 2026-05-04 23:46 | 38.94230 | -77.48561 | 383 ft | 185 kts | 290° |
| 2026-05-04 23:47 | 38.94696 | -77.50140 | 904 ft | 199 kts | 286° |
| 2026-05-04 23:47 | 38.95544 | -77.52393 | 1613 ft | 211 kts | 290° |
| 2026-05-04 23:47 | 38.95964 | -77.53484 | 2175 ft | 206 kts | 290° |
| 2026-05-04 23:47 | 38.96618 | -77.55178 | 2572 ft | 216 kts | 290° |
| 2026-05-04 23:48 | 38.97341 | -77.56908 | 2936 ft | 230 kts | 301° |
| 2026-05-04 23:48 | 38.98726 | -77.58133 | 3004 ft | 256 kts | 341° |
| 2026-05-04 23:48 | 39.00519 | -77.58062 | 3020 ft | 265 kts | 17° |
| 2026-05-04 23:48 | 39.02090 | -77.56851 | 3058 ft | 266 kts | 43° |
| 2026-05-04 23:49 | 39.03268 | -77.55017 | 3501 ft | 267 kts | 57° |
| 2026-05-04 23:49 | 39.04303 | -77.53022 | 4021 ft | 269 kts | 58° |
| 2026-05-04 23:49 | 39.05325 | -77.50994 | 4606 ft | 269 kts | 58° |
| 2026-05-04 23:49 | 39.06349 | -77.48977 | 5137 ft | 271 kts | 57° |
| 2026-05-04 23:50 | 39.07395 | -77.46938 | 5623 ft | 274 kts | 57° |
| 2026-05-04 23:50 | 39.08456 | -77.44889 | 6137 ft | 276 kts | 56° |
| 2026-05-04 23:50 | 39.09527 | -77.42831 | 6611 ft | 278 kts | 55° |
| 2026-05-04 23:50 | 39.10609 | -77.40761 | 7088 ft | 279 kts | 54° |
| 2026-05-04 23:51 | 39.11696 | -77.38686 | 7589 ft | 280 kts | 54° |
| 2026-05-04 23:51 | 39.12791 | -77.36598 | 8034 ft | 284 kts | 54° |
| 2026-05-04 23:51 | 39.13901 | -77.34481 | 8472 ft | 286 kts | 53° |
| 2026-05-04 23:51 | 39.15007 | -77.32345 | 8967 ft | 288 kts | 57° |
| 2026-05-04 23:52 | 39.15629 | -77.29887 | 9378 ft | 294 kts | 87° |
| 2026-05-04 23:52 | 39.15400 | -77.27280 | 9847 ft | 294 kts | 104° |
| 2026-05-04 23:52 | 39.14937 | -77.24697 | 10216 ft | 298 kts | 104° |
| 2026-05-04 23:52 | 39.14465 | -77.22071 | 10577 ft | 305 kts | 104° |
| 2026-05-04 23:53 | 39.13983 | -77.19324 | 10678 ft | 324 kts | 104° |
| 2026-05-04 23:53 | 39.13481 | -77.16389 | 10814 ft | 347 kts | 103° |
| 2026-05-04 23:53 | 39.12975 | -77.13254 | 10984 ft | 368 kts | 102° |
| 2026-05-04 23:53 | 39.12452 | -77.09936 | 11154 ft | 387 kts | 102° |
| 2026-05-04 23:54 | 39.11909 | -77.06486 | 11573 ft | 397 kts | 102° |
| 2026-05-04 23:54 | 39.11351 | -77.02980 | 12197 ft | 401 kts | 102° |
| 2026-05-04 23:54 | 39.10819 | -76.99442 | 12839 ft | 405 kts | 98° |
| 2026-05-04 23:54 | 39.10669 | -76.95804 | 13436 ft | 410 kts | 87° |
| 2026-05-04 23:55 | 39.10782 | -76.92121 | 14079 ft | 413 kts | 86° |
| 2026-05-04 23:55 | 39.10912 | -76.88413 | 14773 ft | 414 kts | 86° |
| 2026-05-04 23:55 | 39.11146 | -76.81019 | 16331 ft | 412 kts | 88° |
| 2026-05-04 23:56 | 39.11247 | -76.77315 | 16994 ft | 415 kts | 88° |
| 2026-05-04 23:56 | 39.11341 | -76.73587 | 17612 ft | 418 kts | 88° |
| 2026-05-04 23:56 | 39.11431 | -76.69830 | 18250 ft | 421 kts | 89° |
| 2026-05-04 23:56 | 39.11520 | -76.66055 | 18787 ft | 423 kts | 89° |
| 2026-05-04 23:57 | 39.11609 | -76.62256 | 19327 ft | 426 kts | 88° |
| 2026-05-04 23:57 | 39.11698 | -76.58437 | 19839 ft | 429 kts | 88° |
| 2026-05-04 23:57 | 39.11786 | -76.54575 | 20346 ft | 432 kts | 88° |
| 2026-05-04 23:57 | 39.11931 | -76.50697 | 20847 ft | 435 kts | 84° |
| 2026-05-04 23:58 | 39.12317 | -76.46820 | 21324 ft | 439 kts | 81° |
| 2026-05-04 23:58 | 39.12791 | -76.42925 | 21797 ft | 442 kts | 80° |
| 2026-05-04 23:58 | 39.13272 | -76.39054 | 22289 ft | 445 kts | 80° |
| 2026-05-04 23:58 | 39.13744 | -76.35106 | 22780 ft | 447 kts | 81° |
| 2026-05-04 23:59 | 39.14197 | -76.31134 | 23253 ft | 450 kts | 81° |
| 2026-05-04 23:59 | 39.14640 | -76.27130 | 23672 ft | 453 kts | 81° |
| 2026-05-04 23:59 | 39.15081 | -76.23103 | 24064 ft | 455 kts | 81° |
| 2026-05-04 23:59 | 39.15535 | -76.19058 | 24472 ft | 457 kts | 80° |
| 2026-05-05 00:00 | 39.16005 | -76.15000 | 24866 ft | 459 kts | 80° |
| 2026-05-05 00:00 | 39.16326 | -76.12256 | 25112 ft | 460 kts | 80° |
| 2026-05-05 00:00 | 39.16960 | -76.06824 | 25530 ft | 465 kts | 80° |
| 2026-05-05 00:00 | 39.17438 | -76.02689 | 25891 ft | 467 kts | 80° |
| 2026-05-05 00:01 | 39.17913 | -75.98542 | 26277 ft | 468 kts | 80° |
| 2026-05-05 00:01 | 39.18393 | -75.94381 | 26662 ft | 470 kts | 78° |
| 2026-05-05 00:01 | 39.19261 | -75.90328 | 26948 ft | 470 kts | 64° |
| 2026-05-05 00:01 | 39.20853 | -75.86675 | 27310 ft | 466 kts | 51° |
| 2026-05-05 00:02 | 39.22993 | -75.83570 | 27657 ft | 463 kts | 38° |
| 2026-05-05 00:02 | 39.25463 | -75.80910 | 28015 ft | 463 kts | 37° |
| 2026-05-05 00:02 | 39.27961 | -75.78276 | 28275 ft | 466 kts | 37° |
| 2026-05-05 00:02 | 39.30469 | -75.75606 | 28568 ft | 468 kts | 37° |
| 2026-05-05 00:03 | 39.32968 | -75.72905 | 28903 ft | 469 kts | 38° |
| 2026-05-05 00:03 | 39.35460 | -75.70178 | 29310 ft | 468 kts | 38° |
| 2026-05-05 00:03 | 39.37929 | -75.67457 | 29820 ft | 466 kts | 38° |
| 2026-05-05 00:03 | 39.40389 | -75.64743 | 30273 ft | 463 kts | 38° |
| 2026-05-05 00:04 | 39.42839 | -75.62042 | 30616 ft | 462 kts | 38° |
| 2026-05-05 00:04 | 39.45290 | -75.59343 | 30899 ft | 463 kts | 37° |
| 2026-05-05 00:04 | 39.47750 | -75.56640 | 31174 ft | 464 kts | 37° |
| 2026-05-05 00:04 | 39.50205 | -75.53945 | 31509 ft | 463 kts | 37° |
| 2026-05-05 00:05 | 39.52655 | -75.51249 | 31865 ft | 462 kts | 37° |
| 2026-05-05 00:05 | 39.55099 | -75.48557 | 32198 ft | 461 kts | 37° |
| 2026-05-05 00:05 | 39.57544 | -75.45861 | 32501 ft | 461 kts | 37° |
| 2026-05-05 00:05 | 39.59979 | -75.43173 | 32869 ft | 459 kts | 37° |
| 2026-05-05 00:06 | 39.62404 | -75.40494 | 33249 ft | 457 kts | 37° |
| 2026-05-05 00:06 | 39.64818 | -75.37827 | 33645 ft | 454 kts | 37° |
| 2026-05-05 00:06 | 39.67223 | -75.35169 | 33923 ft | 455 kts | 37° |
| 2026-05-05 00:06 | 39.69634 | -75.32503 | 34117 ft | 456 kts | 37° |
| 2026-05-05 00:07 | 39.72049 | -75.29828 | 34309 ft | 457 kts | 37° |
| 2026-05-05 00:07 | 39.74466 | -75.27148 | 34535 ft | 457 kts | 37° |
| 2026-05-05 00:07 | 39.76883 | -75.24467 | 34765 ft | 457 kts | 37° |
| 2026-05-05 00:07 | 39.79280 | -75.21759 | 34963 ft | 458 kts | 40° |
| 2026-05-05 00:08 | 39.81492 | -75.18744 | 35129 ft | 462 kts | 45° |
| 2026-05-05 00:08 | 39.83590 | -75.15567 | 35347 ft | 463 kts | 47° |
| 2026-05-05 00:08 | 39.85659 | -75.12364 | 35554 ft | 463 kts | 47° |
| 2026-05-05 00:08 | 39.87740 | -75.09165 | 35732 ft | 464 kts | 46° |
| 2026-05-05 00:09 | 39.89844 | -75.05973 | 35916 ft | 464 kts | 46° |
| 2026-05-05 00:09 | 39.91958 | -75.02800 | 36115 ft | 464 kts | 45° |
| 2026-05-05 00:09 | 39.94080 | -74.99628 | 36329 ft | 464 kts | 45° |
| 2026-05-05 00:09 | 39.96195 | -74.96460 | 36595 ft | 463 kts | 45° |
| 2026-05-05 00:10 | 39.98173 | -74.93212 | 36792 ft | 465 kts | 51° |
| 2026-05-05 00:10 | 40.00024 | -74.89668 | 36903 ft | 468 kts | 53° |
| 2026-05-05 00:10 | 40.01776 | -74.86138 | 36908 ft | 472 kts | 54° |
| 2026-05-05 00:11 | 40.05324 | -74.78942 | 36909 ft | 470 kts | 53° |
| 2026-05-05 00:11 | 40.08901 | -74.71831 | 36897 ft | 467 kts | 53° |
| 2026-05-05 00:12 | 40.12486 | -74.64766 | 36909 ft | 465 kts | 53° |
| 2026-05-05 00:12 | 40.16050 | -74.57730 | 36900 ft | 464 kts | 53° |
| 2026-05-05 00:13 | 40.19649 | -74.50749 | 36900 ft | 461 kts | 47° |
| 2026-05-05 00:13 | 40.24209 | -74.45018 | 36936 ft | 453 kts | 34° |
| 2026-05-05 00:14 | 40.29152 | -74.39881 | 36955 ft | 455 kts | 34° |
| 2026-05-05 00:14 | 40.34101 | -74.34671 | 36929 ft | 457 kts | 35° |
| 2026-05-05 00:15 | 40.39037 | -74.29395 | 36902 ft | 459 kts | 35° |
| 2026-05-05 00:15 | 40.43992 | -74.24070 | 36901 ft | 461 kts | 35° |
| 2026-05-05 00:16 | 40.48959 | -74.18728 | 36914 ft | 462 kts | 35° |
| 2026-05-05 00:16 | 40.53729 | -74.13017 | 36883 ft | 470 kts | 48° |
| 2026-05-05 00:17 | 40.56890 | -74.05445 | 36914 ft | 480 kts | 69° |
| 2026-05-05 00:17 | 40.58768 | -73.97013 | 36921 ft | 481 kts | 71° |
| 2026-05-05 00:18 | 40.60643 | -73.88577 | 36922 ft | 480 kts | 70° |
| 2026-05-05 00:18 | 40.62591 | -73.80176 | 36928 ft | 479 kts | 69° |
| 2026-05-05 00:18 | 40.63929 | -73.76199 | 36886 ft | 471 kts | 51° |
| 2026-05-05 00:19 | 40.65971 | -73.72891 | 36945 ft | 464 kts | 43° |
| 2026-05-05 00:19 | 40.70361 | -73.66662 | 36888 ft | 464 kts | 43° |
| 2026-05-05 00:19 | 40.72587 | -73.63502 | 35860 ft | 477 kts | 43° |
| 2026-05-05 00:20 | 40.74816 | -73.60286 | 35250 ft | 473 kts | 43° |
| 2026-05-05 00:20 | 40.77006 | -73.57083 | 34816 ft | 466 kts | 43° |
| 2026-05-05 00:20 | 40.79151 | -73.53926 | 34487 ft | 458 kts | 43° |
| 2026-05-05 00:20 | 40.81288 | -73.50784 | 33354 ft | 466 kts | 43° |
| 2026-05-05 00:21 | 40.83461 | -73.47592 | 32537 ft | 466 kts | 43° |
| 2026-05-05 00:21 | 40.85614 | -73.44421 | 31889 ft | 463 kts | 43° |
| 2026-05-05 00:21 | 40.87749 | -73.41270 | 31551 ft | 455 kts | 43° |
| 2026-05-05 00:21 | 40.89843 | -73.38175 | 30889 ft | 454 kts | 44° |
| 2026-05-05 00:22 | 40.91925 | -73.35102 | 30350 ft | 452 kts | 44° |
| 2026-05-05 00:22 | 40.94015 | -73.32011 | 29735 ft | 451 kts | 44° |
| 2026-05-05 00:22 | 40.96097 | -73.28929 | 29226 ft | 445 kts | 44° |
| 2026-05-05 00:22 | 40.98149 | -73.25886 | 28671 ft | 442 kts | 44° |
| 2026-05-05 00:23 | 41.00183 | -73.22867 | 28184 ft | 437 kts | 44° |
| 2026-05-05 00:23 | 41.02195 | -73.19879 | 27655 ft | 433 kts | 44° |
| 2026-05-05 00:23 | 41.04192 | -73.16910 | 27152 ft | 430 kts | 44° |
| 2026-05-05 00:23 | 41.06170 | -73.13967 | 26680 ft | 426 kts | 44° |
| 2026-05-05 00:24 | 41.08138 | -73.11037 | 26164 ft | 424 kts | 44° |
| 2026-05-05 00:24 | 41.10089 | -73.08128 | 25708 ft | 421 kts | 44° |
| 2026-05-05 00:24 | 41.12029 | -73.05233 | 25216 ft | 419 kts | 44° |
| 2026-05-05 00:24 | 41.13957 | -73.02353 | 24740 ft | 417 kts | 44° |
| 2026-05-05 00:25 | 41.15876 | -72.99484 | 24282 ft | 414 kts | 44° |
| 2026-05-05 00:25 | 41.17780 | -72.96635 | 23859 ft | 411 kts | 44° |
| 2026-05-05 00:25 | 41.19669 | -72.93805 | 23478 ft | 407 kts | 44° |
| 2026-05-05 00:25 | 41.21477 | -72.90923 | 23008 ft | 408 kts | 52° |
| 2026-05-05 00:26 | 41.22846 | -72.87651 | 23017 ft | 397 kts | 59° |
| 2026-05-05 00:26 | 41.24052 | -72.84382 | 22979 ft | 397 kts | 60° |
| 2026-05-05 00:26 | 41.25281 | -72.81024 | 22942 ft | 410 kts | 60° |
| 2026-05-05 00:26 | 41.26552 | -72.77583 | 22924 ft | 418 kts | 60° |
| 2026-05-05 00:27 | 41.27839 | -72.74131 | 22922 ft | 416 kts | 59° |
| 2026-05-05 00:27 | 41.29128 | -72.70706 | 22914 ft | 413 kts | 59° |
| 2026-05-05 00:27 | 41.30416 | -72.67303 | 22937 ft | 411 kts | 59° |
| 2026-05-05 00:27 | 41.31701 | -72.63919 | 22932 ft | 409 kts | 59° |
| 2026-05-05 00:28 | 41.32986 | -72.60542 | 22930 ft | 409 kts | 59° |
| 2026-05-05 00:28 | 41.34269 | -72.57167 | 22937 ft | 409 kts | 59° |
| 2026-05-05 00:28 | 41.35552 | -72.53788 | 22940 ft | 409 kts | 59° |
| 2026-05-05 00:28 | 41.36837 | -72.50400 | 22942 ft | 410 kts | 59° |
| 2026-05-05 00:29 | 41.38123 | -72.47003 | 22938 ft | 412 kts | 59° |
| 2026-05-05 00:29 | 41.39412 | -72.43595 | 22934 ft | 413 kts | 59° |
| 2026-05-05 00:29 | 41.40702 | -72.40180 | 22941 ft | 413 kts | 59° |
| 2026-05-05 00:29 | 41.41995 | -72.36750 | 22942 ft | 414 kts | 59° |
| 2026-05-05 00:30 | 41.43287 | -72.33317 | 22923 ft | 415 kts | 59° |
| 2026-05-05 00:30 | 41.44562 | -72.29930 | 22929 ft | 415 kts | 59° |
| 2026-05-05 00:30 | 41.45870 | -72.26449 | 22937 ft | 415 kts | 59° |
| 2026-05-05 00:30 | 41.47144 | -72.23055 | 22930 ft | 415 kts | 59° |
| 2026-05-05 00:31 | 41.48431 | -72.19615 | 22916 ft | 415 kts | 60° |
| 2026-05-05 00:31 | 41.49700 | -72.16165 | 22910 ft | 414 kts | 60° |
| 2026-05-05 00:31 | 41.50964 | -72.12702 | 22485 ft | 417 kts | 60° |
| 2026-05-05 00:31 | 41.52229 | -72.09230 | 22024 ft | 414 kts | 60° |
| 2026-05-05 00:32 | 41.53485 | -72.05785 | 21582 ft | 411 kts | 60° |
| 2026-05-05 00:32 | 41.54732 | -72.02363 | 21134 ft | 408 kts | 60° |
| 2026-05-05 00:32 | 41.55955 | -71.98965 | 20699 ft | 406 kts | 63° |
| 2026-05-05 00:32 | 41.57029 | -71.95491 | 20263 ft | 404 kts | 66° |
| 2026-05-05 00:33 | 41.58036 | -71.92000 | 19854 ft | 401 kts | 66° |
| 2026-05-05 00:33 | 41.58717 | -71.89656 | 19577 ft | 400 kts | 66° |
| 2026-05-05 00:33 | 41.59731 | -71.86214 | 19165 ft | 397 kts | 66° |
| 2026-05-05 00:33 | 41.60742 | -71.82793 | 18758 ft | 395 kts | 66° |
| 2026-05-05 00:34 | 41.61749 | -71.79390 | 18366 ft | 393 kts | 66° |
| 2026-05-05 00:34 | 41.62736 | -71.76045 | 17932 ft | 391 kts | 66° |
| 2026-05-05 00:34 | 41.63730 | -71.72677 | 17481 ft | 389 kts | 66° |
| 2026-05-05 00:34 | 41.64730 | -71.69281 | 17026 ft | 387 kts | 66° |
| 2026-05-05 00:35 | 41.65714 | -71.65935 | 16590 ft | 385 kts | 66° |
| 2026-05-05 00:35 | 41.66691 | -71.62610 | 16153 ft | 383 kts | 66° |
| 2026-05-05 00:35 | 41.67661 | -71.59304 | 15722 ft | 382 kts | 66° |
| 2026-05-05 00:35 | 41.68622 | -71.56021 | 15496 ft | 374 kts | 67° |
| 2026-05-05 00:36 | 41.69547 | -71.52858 | 15257 ft | 367 kts | 66° |
| 2026-05-05 00:36 | 41.70471 | -71.49696 | 14990 ft | 362 kts | 66° |
| 2026-05-05 00:36 | 41.71379 | -71.46585 | 14761 ft | 357 kts | 67° |
| 2026-05-05 00:36 | 41.72277 | -71.43510 | 14510 ft | 352 kts | 66° |
| 2026-05-05 00:37 | 41.73331 | -71.40579 | 14230 ft | 347 kts | 58° |
| 2026-05-05 00:37 | 41.74560 | -71.37823 | 14033 ft | 342 kts | 56° |
| 2026-05-05 00:37 | 41.75790 | -71.35104 | 13791 ft | 341 kts | 57° |
| 2026-05-05 00:37 | 41.76991 | -71.32370 | 13522 ft | 340 kts | 57° |
| 2026-05-05 00:38 | 41.78169 | -71.29631 | 13263 ft | 338 kts | 58° |
| 2026-05-05 00:38 | 41.79334 | -71.26901 | 12998 ft | 337 kts | 58° |
| 2026-05-05 00:38 | 41.80494 | -71.24176 | 12736 ft | 336 kts | 58° |
| 2026-05-05 00:38 | 41.81647 | -71.21465 | 12472 ft | 334 kts | 58° |
| 2026-05-05 00:39 | 41.82797 | -71.18760 | 12220 ft | 333 kts | 58° |
| 2026-05-05 00:39 | 41.83942 | -71.16065 | 11967 ft | 332 kts | 58° |
| 2026-05-05 00:39 | 41.85078 | -71.13389 | 11712 ft | 328 kts | 58° |
| 2026-05-05 00:39 | 41.86204 | -71.10749 | 11467 ft | 324 kts | 58° |
| 2026-05-05 00:40 | 41.87329 | -71.08144 | 11216 ft | 320 kts | 58° |
| 2026-05-05 00:40 | 41.88442 | -71.05574 | 10965 ft | 317 kts | 58° |
| 2026-05-05 00:40 | 41.89541 | -71.03034 | 10715 ft | 313 kts | 58° |
| 2026-05-05 00:40 | 41.90629 | -71.00518 | 10469 ft | 310 kts | 57° |
| 2026-05-05 00:41 | 41.91702 | -70.98031 | 10225 ft | 306 kts | 57° |
| 2026-05-05 00:41 | 41.92764 | -70.95567 | 9984 ft | 303 kts | 57° |
| 2026-05-05 00:41 | 41.93812 | -70.93132 | 9803 ft | 297 kts | 57° |
| 2026-05-05 00:41 | 41.94812 | -70.90803 | 9807 ft | 279 kts | 57° |
| 2026-05-05 00:42 | 41.95758 | -70.88599 | 9668 ft | 265 kts | 57° |
| 2026-05-05 00:42 | 41.96651 | -70.86517 | 9574 ft | 249 kts | 57° |
| 2026-05-05 00:42 | 41.97491 | -70.84562 | 9443 ft | 235 kts | 56° |
| 2026-05-05 00:42 | 41.98284 | -70.82713 | 9322 ft | 221 kts | 57° |
| 2026-05-05 00:43 | 41.99034 | -70.80962 | 9138 ft | 213 kts | 56° |
| 2026-05-05 00:43 | 41.99771 | -70.79244 | 8848 ft | 211 kts | 56° |
| 2026-05-05 00:43 | 42.00504 | -70.77535 | 8594 ft | 211 kts | 56° |
| 2026-05-05 00:43 | 42.01272 | -70.75855 | 8329 ft | 211 kts | 47° |
| 2026-05-05 00:44 | 42.02228 | -70.74370 | 8114 ft | 209 kts | 42° |
| 2026-05-05 00:44 | 42.03218 | -70.72937 | 8098 ft | 209 kts | 42° |
| 2026-05-05 00:44 | 42.04213 | -70.71493 | 8053 ft | 211 kts | 43° |
| 2026-05-05 00:44 | 42.05186 | -70.70065 | 8049 ft | 209 kts | 43° |
| 2026-05-05 00:45 | 42.06163 | -70.68618 | 8053 ft | 210 kts | 43° |
| 2026-05-05 00:45 | 42.07142 | -70.67160 | 8046 ft | 210 kts | 43° |
| 2026-05-05 00:45 | 42.08117 | -70.65702 | 8055 ft | 209 kts | 43° |
| 2026-05-05 00:45 | 42.09088 | -70.64247 | 8047 ft | 209 kts | 43° |
| 2026-05-05 00:46 | 42.10059 | -70.62791 | 8042 ft | 209 kts | 43° |
| 2026-05-05 00:46 | 42.11145 | -70.61546 | 7968 ft | 203 kts | 16° |
| 2026-05-05 00:46 | 42.12481 | -70.61033 | 7846 ft | 199 kts | 5° |
| 2026-05-05 00:46 | 42.13848 | -70.60672 | 7624 ft | 201 kts | 5° |
| 2026-05-05 00:47 | 42.15217 | -70.60319 | 7432 ft | 199 kts | 4° |
| 2026-05-05 00:47 | 42.16564 | -70.59966 | 7247 ft | 196 kts | 4° |
| 2026-05-05 00:47 | 42.17890 | -70.59612 | 7060 ft | 193 kts | 4° |
| 2026-05-05 00:47 | 42.19213 | -70.59256 | 6867 ft | 195 kts | 4° |
| 2026-05-05 00:48 | 42.20546 | -70.58895 | 6686 ft | 196 kts | 4° |
| 2026-05-05 00:48 | 42.21886 | -70.58528 | 6498 ft | 197 kts | 4° |
| 2026-05-05 00:48 | 42.23235 | -70.58156 | 6316 ft | 198 kts | 4° |
| 2026-05-05 00:48 | 42.24586 | -70.57781 | 6109 ft | 198 kts | 4° |
| 2026-05-05 00:49 | 42.25933 | -70.57406 | 5918 ft | 197 kts | 4° |
| 2026-05-05 00:49 | 42.27276 | -70.57031 | 5722 ft | 197 kts | 4° |
| 2026-05-05 00:49 | 42.28612 | -70.56657 | 5542 ft | 196 kts | 4° |
| 2026-05-05 00:49 | 42.29942 | -70.56285 | 5356 ft | 195 kts | 4° |
| 2026-05-05 00:50 | 42.31268 | -70.55914 | 5168 ft | 195 kts | 4° |
| 2026-05-05 00:50 | 42.32589 | -70.55865 | 5007 ft | 183 kts | 330° |
| 2026-05-05 00:50 | 42.33544 | -70.56812 | 5043 ft | 169 kts | 310° |
| 2026-05-05 00:50 | 42.34402 | -70.57926 | 5025 ft | 172 kts | 309° |
| 2026-05-05 00:51 | 42.35261 | -70.59049 | 5019 ft | 172 kts | 310° |
| 2026-05-05 00:51 | 42.36118 | -70.60172 | 5034 ft | 171 kts | 309° |
| 2026-05-05 00:51 | 42.36975 | -70.61296 | 5004 ft | 171 kts | 309° |
| 2026-05-05 00:51 | 42.37826 | -70.62414 | 5003 ft | 170 kts | 309° |
| 2026-05-05 00:52 | 42.38674 | -70.63527 | 4988 ft | 169 kts | 309° |
| 2026-05-05 00:52 | 42.39515 | -70.64633 | 4996 ft | 168 kts | 309° |
| 2026-05-05 00:52 | 42.40353 | -70.65734 | 4999 ft | 168 kts | 309° |
| 2026-05-05 00:52 | 42.41190 | -70.66836 | 4980 ft | 168 kts | 309° |
| 2026-05-05 00:53 | 42.42028 | -70.67939 | 4985 ft | 168 kts | 309° |
| 2026-05-05 00:53 | 42.42867 | -70.69044 | 4988 ft | 169 kts | 309° |
| 2026-05-05 00:53 | 42.43711 | -70.70157 | 4986 ft | 171 kts | 309° |
| 2026-05-05 00:53 | 42.44597 | -70.71329 | 4584 ft | 184 kts | 309° |
| 2026-05-05 00:54 | 42.45513 | -70.72536 | 4224 ft | 184 kts | 309° |
| 2026-05-05 00:54 | 42.46437 | -70.73753 | 3848 ft | 186 kts | 309° |
| 2026-05-05 00:54 | 42.47365 | -70.74976 | 3455 ft | 186 kts | 308° |
| 2026-05-05 00:54 | 42.48292 | -70.76197 | 3083 ft | 185 kts | 308° |
| 2026-05-05 00:55 | 42.49183 | -70.77368 | 2982 ft | 172 kts | 308° |
| 2026-05-05 00:55 | 42.50040 | -70.78501 | 3001 ft | 177 kts | 308° |
| 2026-05-05 00:55 | 42.50937 | -70.79691 | 2947 ft | 184 kts | 308° |